Time;durP1;ratioP1;P1;durP2;ratioP2;P2;SDS_P1;SDS_P2;PMS_P1;PMS_P2;Temp;Humidity;BMP_temperature;BMP_pressure;BME280_temperature;BME280_humidity;BME280_pressure;Samples;Min_cycle;Max_cycle;Signal;HPM_P1;HPM_P2
2022/08/21 00:01:01;;;;;;;;;;;;;;;19.86;37.14;101313.44;5062547;28;20069;-81
2022/08/21 00:03:34;;;;;;;;;;;;;;;19.84;37.33;101318.31;5050523;28;19932;-82
2022/08/21 00:06:02;;;;;;;;;;;;;;;19.80;37.20;101319.72;5047654;28;19925;-82
2022/08/21 00:08:30;;;;;;;;;;;;;;;19.76;37.18;101315.59;5052829;28;19974;-82
2022/08/21 00:11:00;;;;;;;;;;;;;;;19.72;37.25;101311.44;5052649;28;19924;-82
2022/08/21 00:13:28;;;;;;;;;;;;;;;19.68;37.76;101306.44;5044391;28;19931;-81
2022/08/21 00:15:56;;;;;;;;;;;;;;;19.64;37.22;101301.25;5043725;28;20260;-82
2022/08/21 00:18:25;;;;;;;;;;;;;;;19.59;37.92;101302.84;5053471;28;20291;-83
2022/08/21 00:20:53;;;;;;;;;;;;;;;19.55;37.40;101294.00;5049738;28;19952;-81
2022/08/21 00:23:21;;;;;;;;;;;;;;;19.51;37.73;101289.00;5051408;28;19925;-81
2022/08/21 00:25:51;;;;;;;;;;;;;;;19.48;37.68;101292.16;5049975;28;20368;-81
2022/08/21 00:28:20;;;;;;;;;;;;;;;19.43;37.92;101278.81;5049673;28;19925;-81
2022/08/21 00:30:48;;;;;;;;;;;;;;;19.40;37.74;101281.09;5047761;28;19935;-80
2022/08/21 00:33:16;;;;;;;;;;;;;;;19.36;37.99;101272.28;5040291;28;19932;-81
2022/08/21 00:35:44;;;;;;;;;;;;;;;19.32;37.79;101270.91;5047762;28;19931;-81
2022/08/21 00:38:13;;;;;;;;;;;;;;;19.30;38.17;101272.97;5053605;28;19929;-81
2022/08/21 00:40:42;;;;;;;;;;;;;;;19.27;38.05;101270.59;5052557;28;19956;-81
2022/08/21 00:43:11;;;;;;;;;;;;;;;19.25;37.67;101272.69;5052941;28;19925;-82
2022/08/21 00:45:41;;;;;;;;;;;;;;;19.23;37.77;101275.63;5051672;28;19932;-81
2022/08/21 00:48:09;;;;;;;;;;;;;;;19.22;38.25;101271.13;5053123;28;19925;-81
2022/08/21 00:50:42;;;;;;;;;;;;;;;19.21;37.82;101279.66;5053385;28;19970;-81
2022/08/21 00:53:11;;;;;;;;;;;;;;;19.19;38.07;101270.59;5042058;28;19925;-80
2022/08/21 00:55:40;;;;;;;;;;;;;;;19.18;38.14;101275.28;5036976;28;19925;-81
2022/08/21 00:58:08;;;;;;;;;;;;;;;19.16;38.84;101266.28;5052346;28;19975;-80
2022/08/21 01:00:39;;;;;;;;;;;;;;;19.13;38.57;101276.88;5038788;28;19975;-81
2022/08/21 01:03:10;;;;;;;;;;;;;;;19.11;39.21;101281.75;5041177;28;19924;-81
2022/08/21 01:05:38;;;;;;;;;;;;;;;19.07;38.67;101281.22;5046386;28;19974;-81
2022/08/21 01:08:07;;;;;;;;;;;;;;;19.04;38.98;101277.97;5042156;28;19979;-80
2022/08/21 01:10:35;;;;;;;;;;;;;;;19.01;38.69;101278.31;5047243;28;19925;-82
2022/08/21 01:13:09;;;;;;;;;;;;;;;18.98;38.59;101276.75;5040035;28;20395;-82
2022/08/21 01:15:39;;;;;;;;;;;;;;;18.96;39.05;101275.22;5047689;28;19929;-80
2022/08/21 01:18:10;;;;;;;;;;;;;;;18.93;38.99;101283.88;5047825;28;20265;-80
2022/08/21 01:20:41;;;;;;;;;;;;;;;18.90;38.89;101285.97;5047815;28;19925;-81
2022/08/21 01:23:14;;;;;;;;;;;;;;;18.87;38.87;101282.69;5033694;28;19925;-80
2022/08/21 01:25:44;;;;;;;;;;;;;;;18.84;39.27;101281.13;5035686;28;20338;-82
2022/08/21 01:28:14;;;;;;;;;;;;;;;18.82;39.05;101286.00;5049321;28;19931;-82
2022/08/21 01:30:43;;;;;;;;;;;;;;;18.78;39.29;101281.88;5046664;28;19925;-81
2022/08/21 01:33:11;;;;;;;;;;;;;;;18.76;39.48;101288.63;5056254;28;19924;-81
2022/08/21 01:35:39;;;;;;;;;;;;;;;18.72;39.56;101290.88;5044531;28;20011;-80
2022/08/21 01:38:08;;;;;;;;;;;;;;;18.69;39.83;101285.69;5052387;28;19925;-80
2022/08/21 01:40:38;;;;;;;;;;;;;;;18.64;39.33;101290.88;5048562;28;19932;-81
2022/08/21 01:43:06;;;;;;;;;;;;;;;18.61;39.17;101291.25;5031869;28;19971;-81
2022/08/21 01:45:34;;;;;;;;;;;;;;;18.58;39.33;101280.50;5036924;28;19928;-80
2022/08/21 01:48:03;;;;;;;;;;;;;;;18.54;39.22;101290.25;5050758;28;20329;-80
2022/08/21 01:50:31;;;;;;;;;;;;;;;18.51;39.05;101282.25;5061031;28;19948;-80
2022/08/21 01:52:59;;;;;;;;;;;;;;;18.47;39.73;101273.38;5051183;28;19925;-80
2022/08/21 01:55:27;;;;;;;;;;;;;;;18.44;39.66;101276.53;5045489;28;19925;-80
2022/08/21 01:57:58;;;;;;;;;;;;;;;18.42;39.52;101277.75;5049809;28;20439;-80
2022/08/21 02:00:26;;;;;;;;;;;;;;;18.38;39.93;101280.00;5050096;28;19932;-80
2022/08/21 02:03:06;;;;;;;;;;;;;;;18.35;39.32;101276.72;5055533;28;19925;-80
2022/08/21 02:05:35;;;;;;;;;;;;;;;18.31;39.45;101273.41;5048223;28;20032;-80
2022/08/21 02:08:03;;;;;;;;;;;;;;;18.29;39.85;101280.19;5056166;28;19967;-81
2022/08/21 02:10:32;;;;;;;;;;;;;;;18.26;39.69;101273.09;5067036;28;19982;-80
2022/08/21 02:13:02;;;;;;;;;;;;;;;18.25;39.70;101278.78;5050581;28;19929;-80
2022/08/21 02:15:31;;;;;;;;;;;;;;;18.23;39.25;101278.97;5049091;28;19925;-80
2022/08/21 02:18:00;;;;;;;;;;;;;;;18.22;39.71;101270.84;5051334;28;19925;-80
2022/08/21 02:20:29;;;;;;;;;;;;;;;18.18;39.99;101267.56;5050087;28;19925;-80
2022/08/21 02:22:57;;;;;;;;;;;;;;;18.18;39.87;101270.31;5045084;28;19956;-80
2022/08/21 02:25:28;;;;;;;;;;;;;;;18.14;39.89;101275.34;5057874;28;19933;-80
2022/08/21 02:28:05;;;;;;;;;;;;;;;18.12;40.05;101271.91;5063144;28;19932;-80
2022/08/21 02:30:34;;;;;;;;;;;;;;;18.11;39.58;101277.59;5044914;28;19925;-80
2022/08/21 02:33:02;;;;;;;;;;;;;;;18.08;39.71;101270.50;5064965;28;20011;-80
2022/08/21 02:35:31;;;;;;;;;;;;;;;18.06;40.36;101271.72;5059716;28;19925;-80
2022/08/21 02:38:00;;;;;;;;;;;;;;;18.03;40.18;101270.16;5055925;28;20023;-81
2022/08/21 02:40:30;;;;;;;;;;;;;;;18.00;40.05;101270.50;5054673;28;19925;-81
2022/08/21 02:42:58;;;;;;;;;;;;;;;17.98;40.24;101264.25;5055578;28;19925;-80
2022/08/21 02:45:28;;;;;;;;;;;;;;;17.94;39.87;101264.78;5057809;28;20011;-80
2022/08/21 02:47:58;;;;;;;;;;;;;;;17.92;40.25;101273.25;5046456;28;19955;-81
2022/08/21 02:50:28;;;;;;;;;;;;;;;17.88;40.19;101277.44;5044271;28;19944;-80
2022/08/21 02:52:56;;;;;;;;;;;;;;;17.85;40.03;101272.22;5045427;28;19929;-80
2022/08/21 02:55:26;;;;;;;;;;;;;;;17.83;40.17;101278.97;5052634;28;19962;-80
2022/08/21 02:57:55;;;;;;;;;;;;;;;17.79;40.72;101278.47;5053160;28;19936;-80
2022/08/21 03:00:24;;;;;;;;;;;;;;;17.75;40.48;101279.81;5068692;28;19925;-81
2022/08/21 03:02:55;;;;;;;;;;;;;;;17.73;40.07;101276.34;5054116;28;19932;-80
2022/08/21 03:05:24;;;;;;;;;;;;;;;17.69;40.38;101269.41;5071880;28;20012;-80
2022/08/21 03:08:09;;;;;;;;;;;;;;;17.65;40.43;101271.63;5053366;28;19940;-80
2022/08/21 03:10:39;;;;;;;;;;;;;;;17.62;40.57;101271.13;5051336;28;19931;-79
2022/08/21 03:13:07;;;;;;;;;;;;;;;17.59;40.45;101263.16;5044545;28;19925;-79
2022/08/21 03:15:36;;;;;;;;;;;;;;;17.56;40.16;101263.53;5055358;28;19932;-79
2022/08/21 03:18:06;;;;;;;;;;;;;;;17.53;40.72;101266.63;5042665;28;20324;-80
2022/08/21 03:20:35;;;;;;;;;;;;;;;17.49;40.81;101268.84;5052117;28;19932;-79
2022/08/21 03:23:04;;;;;;;;;;;;;;;17.45;40.68;101261.94;5053994;28;19971;-79
2022/08/21 03:25:40;;;;;;;;;;;;;;;17.42;40.45;101266.94;5047876;28;19925;-79
2022/08/21 03:28:09;;;;;;;;;;;;;;;17.37;40.38;101268.31;5048710;28;19948;-78
2022/08/21 03:30:41;;;;;;;;;;;;;;;17.34;40.98;101265.00;5046208;28;19925;-78
2022/08/21 03:33:11;;;;;;;;;;;;;;;17.30;40.74;101275.56;5043658;28;19924;-80
2022/08/21 03:35:42;;;;;;;;;;;;;;;17.26;40.79;101267.75;5045495;28;19925;-80
2022/08/21 03:38:12;;;;;;;;;;;;;;;17.23;41.05;101265.34;5035022;28;20380;-79
2022/08/21 03:40:40;;;;;;;;;;;;;;;17.19;40.90;101262.03;5052414;28;19924;-80
2022/08/21 03:43:09;;;;;;;;;;;;;;;17.16;41.14;101265.13;5064661;28;19967;-80
2022/08/21 03:45:38;;;;;;;;;;;;;;;17.14;41.16;101271.88;5049605;28;20334;-79
2022/08/21 03:48:07;;;;;;;;;;;;;;;17.11;41.04;101266.66;5047298;28;20391;-79
2022/08/21 03:50:40;;;;;;;;;;;;;;;17.08;40.89;101258.69;5055420;28;19933;-79
2022/08/21 03:53:08;;;;;;;;;;;;;;;17.05;40.82;101262.69;5046111;28;19964;-80
2022/08/21 03:55:45;;;;;;;;;;;;;;;17.00;41.08;101257.63;5053815;28;20023;-79
2022/08/21 03:58:13;;;;;;;;;;;;;;;17.00;41.10;101265.06;5054785;28;19925;-80
2022/08/21 04:00:44;;;;;;;;;;;;;;;16.96;41.28;101267.28;5050627;28;20496;-79
2022/08/21 04:03:12;;;;;;;;;;;;;;;16.96;40.83;101277.47;5053199;28;19924;-80
2022/08/21 04:05:42;;;;;;;;;;;;;;;16.93;41.34;101272.25;5053364;28;19936;-79
2022/08/21 04:08:10;;;;;;;;;;;;;;;16.91;40.76;101275.19;5078391;28;19933;-80
2022/08/21 04:10:39;;;;;;;;;;;;;;;16.90;41.09;101276.25;5042717;28;20020;-79
2022/08/21 04:13:08;;;;;;;;;;;;;;;16.89;41.09;101280.03;5048680;28;19929;-80
2022/08/21 04:15:38;;;;;;;;;;;;;;;16.87;41.46;101278.47;5051752;28;19928;-80
2022/08/21 04:18:06;;;;;;;;;;;;;;;16.87;40.74;101286.75;5051626;28;19986;-79
2022/08/21 04:20:34;;;;;;;;;;;;;;;16.86;40.80;101298.84;5052324;28;19928;-80
2022/08/21 04:23:04;;;;;;;;;;;;;;;16.85;40.99;101286.91;5052547;28;19925;-80
2022/08/21 04:25:32;;;;;;;;;;;;;;;16.85;40.90;101299.88;5048953;28;19925;-80
2022/08/21 04:28:01;;;;;;;;;;;;;;;16.84;41.43;101296.25;5052681;28;19971;-80
2022/08/21 04:30:30;;;;;;;;;;;;;;;16.84;41.25;101292.59;5047080;28;20379;-80
2022/08/21 04:32:58;;;;;;;;;;;;;;;16.83;41.18;101296.41;5054182;28;20019;-81
2022/08/21 04:35:28;;;;;;;;;;;;;;;16.84;40.91;101298.13;5058422;28;19937;-80
2022/08/21 04:37:56;;;;;;;;;;;;;;;16.83;41.25;101296.41;5053953;28;19925;-80
2022/08/21 04:40:27;;;;;;;;;;;;;;;16.82;41.28;101292.78;5061962;28;19990;-80
2022/08/21 04:42:57;;;;;;;;;;;;;;;16.83;40.85;101296.41;5060039;28;19959;-80
2022/08/21 04:45:27;;;;;;;;;;;;;;;16.83;40.94;101296.41;5063400;28;20387;-80
2022/08/21 04:47:57;;;;;;;;;;;;;;;16.84;41.31;101295.38;5052868;28;19955;-81
2022/08/21 04:50:28;;;;;;;;;;;;;;;16.84;41.08;101299.00;5060459;28;19925;-80
2022/08/21 04:53:08;;;;;;;;;;;;;;;16.84;41.53;101304.53;5048218;28;20307;-81
2022/08/21 04:55:37;;;;;;;;;;;;;;;16.83;41.43;101302.78;5057717;28;19925;-80
2022/08/21 04:58:06;;;;;;;;;;;;;;;16.83;41.16;101301.91;5072377;28;20369;-80
2022/08/21 05:00:34;;;;;;;;;;;;;;;16.83;41.51;101296.41;5045127;28;19925;-81
2022/08/21 05:03:04;;;;;;;;;;;;;;;16.80;41.95;101300.38;5052639;28;19925;-79
2022/08/21 05:05:32;;;;;;;;;;;;;;;16.80;41.80;101288.44;5047233;28;19930;-80
2022/08/21 05:08:01;;;;;;;;;;;;;;;16.77;41.70;101297.94;5044487;28;19955;-80
2022/08/21 05:10:35;;;;;;;;;;;;;;;16.76;41.35;101295.31;5051096;28;19956;-80
2022/08/21 05:13:07;;;;;;;;;;;;;;;16.73;41.82;101296.53;5046310;28;20276;-79
2022/08/21 05:15:35;;;;;;;;;;;;;;;16.72;42.06;101296.69;5044246;28;19935;-80
2022/08/21 05:18:03;;;;;;;;;;;;;;;16.70;41.47;101302.38;5074229;28;19928;-80
2022/08/21 05:20:34;;;;;;;;;;;;;;;16.70;41.75;101299.63;5048257;28;19925;-79
2022/08/21 05:23:03;;;;;;;;;;;;;;;16.69;42.00;101302.53;5040809;28;19925;-80
2022/08/21 05:25:31;;;;;;;;;;;;;;;16.69;41.87;101305.31;5049616;28;19925;-79
2022/08/21 05:28:01;;;;;;;;;;;;;;;16.69;41.91;101300.66;5048920;28;20028;-80
2022/08/21 05:30:30;;;;;;;;;;;;;;;16.71;42.04;101312.41;5048691;28;20004;-80
2022/08/21 05:32:59;;;;;;;;;;;;;;;16.72;41.90;101310.53;5049521;28;20470;-80
2022/08/21 05:35:28;;;;;;;;;;;;;;;16.75;41.57;101316.56;5045110;28;19929;-79
2022/08/21 05:37:56;;;;;;;;;;;;;;;16.79;41.96;101319.88;5050193;28;20372;-79
2022/08/21 05:40:24;;;;;;;;;;;;;;;16.81;41.80;101323.38;5047733;28;20409;-80
2022/08/21 05:58:55;;;;;;;;;;;;;;;17.02;42.21;101321.06;5032712;28;19971;-81
2022/08/21 06:01:24;;;;;;;;;;;;;;;17.05;42.11;101317.13;5052498;28;19924;-81
2022/08/21 06:03:52;;;;;;;;;;;;;;;17.10;42.17;101320.25;5028872;28;19939;-81
2022/08/21 06:06:24;;;;;;;;;;;;;;;17.14;41.81;101325.28;5047037;28;20379;-81
2022/08/21 06:08:52;;;;;;;;;;;;;;;17.18;41.92;101325.81;5047355;28;19947;-81
2022/08/21 06:11:20;;;;;;;;;;;;;;;17.20;41.82;101313.56;5054589;28;20439;-81
2022/08/21 06:13:56;;;;;;;;;;;;;;;17.24;41.93;101316.84;5054049;28;19929;-82
2022/08/21 06:16:25;;;;;;;;;;;;;;;17.27;42.03;101316.50;5053928;28;19988;-84
2022/08/21 06:18:53;;;;;;;;;;;;;;;17.30;42.06;101317.06;5052930;28;20330;-82
2022/08/21 06:21:26;;;;;;;;;;;;;;;17.32;42.32;101312.19;5049776;28;19925;-83
2022/08/21 06:23:55;;;;;;;;;;;;;;;17.35;41.72;101316.53;5048255;28;20023;-82
2022/08/21 06:26:23;;;;;;;;;;;;;;;17.38;42.10;101316.22;5054293;28;20343;-82
2022/08/21 06:28:51;;;;;;;;;;;;;;;17.42;41.58;101312.06;5043793;28;19924;-82
2022/08/21 06:31:22;;;;;;;;;;;;;;;17.47;41.74;101317.13;5048846;28;19968;-82
2022/08/21 06:33:51;;;;;;;;;;;;;;;17.50;41.93;101316.75;5049180;28;19996;-82
2022/08/21 06:36:20;;;;;;;;;;;;;;;17.55;42.09;101317.13;5039817;28;19929;-82
2022/08/21 06:38:49;;;;;;;;;;;;;;;17.60;41.94;101323.88;5048174;28;19975;-82
2022/08/21 06:41:19;;;;;;;;;;;;;;;17.64;41.90;101321.66;5049819;28;20106;-81
2022/08/21 06:43:53;;;;;;;;;;;;;;;17.69;41.91;101319.25;5062795;28;19924;-81
2022/08/21 06:46:23;;;;;;;;;;;;;;;17.74;41.41;101320.47;5043045;28;20439;-81
2022/08/21 06:48:51;;;;;;;;;;;;;;;17.79;41.74;101317.22;5046895;28;19932;-82
2022/08/21 06:51:19;;;;;;;;;;;;;;;17.84;41.90;101317.56;5047399;28;20032;-79
2022/08/21 06:53:48;;;;;;;;;;;;;;;17.91;41.90;101314.97;5045246;28;19955;-79
2022/08/21 06:56:16;;;;;;;;;;;;;;;18.00;42.10;101317.59;5049204;28;19955;-80
2022/08/21 06:58:45;;;;;;;;;;;;;;;18.14;42.10;101319.66;5046986;28;19924;-81
2022/08/21 07:01:13;;;;;;;;;;;;;;;18.32;42.00;101315.84;5061577;28;20032;-84
2022/08/21 07:03:44;;;;;;;;;;;;;;;18.54;42.39;101315.19;5046930;28;20387;-85
2022/08/21 07:06:12;;;;;;;;;;;;;;;18.80;41.94;101312.19;5033397;28;19925;-85
2022/08/21 07:08:41;;;;;;;;;;;;;;;19.08;42.06;101318.16;5043364;28;20343;-85
2022/08/21 07:11:12;;;;;;;;;;;;;;;19.39;42.20;101310.75;5061478;28;19933;-85
2022/08/21 07:13:40;;;;;;;;;;;;;;;19.72;41.62;101318.91;5063846;28;20350;-85
2022/08/21 07:16:08;;;;;;;;;;;;;;;20.04;41.54;101317.88;5047689;28;19932;-85
2022/08/21 07:18:37;;;;;;;;;;;;;;;20.34;41.04;101319.69;5051835;28;19987;-85
2022/08/21 07:21:07;;;;;;;;;;;;;;;20.64;41.15;101324.28;5054744;28;19925;-86
2022/08/21 07:23:37;;;;;;;;;;;;;;;20.97;40.75;101319.22;5051988;28;19947;-86
2022/08/21 07:26:06;;;;;;;;;;;;;;;21.26;40.41;101315.63;5053022;28;20008;-86
2022/08/21 07:28:34;;;;;;;;;;;;;;;21.55;40.26;101325.81;5051212;28;19994;-86
2022/08/21 07:31:04;;;;;;;;;;;;;;;21.82;39.87;101316.72;5052145;28;19948;-86
2022/08/21 07:33:33;;;;;;;;;;;;;;;22.08;39.50;101318.97;5053977;28;19925;-87
2022/08/21 07:36:02;;;;;;;;;;;;;;;22.33;39.21;101318.56;5049039;28;19952;-88
2022/08/21 07:38:31;;;;;;;;;;;;;;;22.55;38.97;101320.28;5051566;28;19924;-87
2022/08/21 07:41:01;;;;;;;;;;;;;;;22.74;38.67;101316.78;5050430;28;19948;-87
2022/08/21 07:43:30;;;;;;;;;;;;;;;22.93;38.36;101317.97;5061721;28;19925;-88
2022/08/21 07:45:58;;;;;;;;;;;;;;;23.10;37.92;101312.91;5049799;28;19925;-88
2022/08/21 07:48:26;;;;;;;;;;;;;;;23.25;37.96;101316.50;5039939;28;19931;-88
2022/08/21 07:50:55;;;;;;;;;;;;;;;23.38;37.71;101314.63;5038727;28;20303;-88
2022/08/21 07:53:23;;;;;;;;;;;;;;;23.51;37.51;101315.72;5044115;28;20649;-88
2022/08/21 07:55:53;;;;;;;;;;;;;;;23.65;37.43;101317.53;5049541;28;20296;-88
2022/08/21 07:58:21;;;;;;;;;;;;;;;23.75;37.10;101318.84;5057175;28;19932;-88
2022/08/21 08:00:49;;;;;;;;;;;;;;;23.86;37.07;101316.53;5045726;28;20134;-89
2022/08/21 08:03:18;;;;;;;;;;;;;;;23.96;37.01;101312.25;5039704;28;19959;-88
2022/08/21 08:05:56;;;;;;;;;;;;;;;24.05;36.71;101304.53;5061649;28;20295;-88
2022/08/21 08:08:24;;;;;;;;;;;;;;;24.13;36.66;101294.00;5043775;28;20314;-88
2022/08/21 08:10:55;;;;;;;;;;;;;;;24.22;36.35;101299.41;5045021;28;19925;-89
2022/08/21 08:13:23;;;;;;;;;;;;;;;24.31;36.28;101304.56;5048531;28;20028;-87
2022/08/21 08:15:51;;;;;;;;;;;;;;;24.39;36.21;101295.13;5050888;28;20008;-88
2022/08/21 08:18:19;;;;;;;;;;;;;;;24.46;35.98;101299.66;5046920;28;19937;-89
2022/08/21 08:20:47;;;;;;;;;;;;;;;24.54;35.99;101301.38;5050321;28;20279;-88
2022/08/21 08:23:16;;;;;;;;;;;;;;;24.62;35.79;101305.88;5047055;28;19925;-88
2022/08/21 08:25:44;;;;;;;;;;;;;;;24.68;35.57;101297.47;5050456;28;20375;-88
2022/08/21 08:28:14;;;;;;;;;;;;;;;24.75;35.42;101300.25;5053335;28;20314;-88
2022/08/21 08:30:44;;;;;;;;;;;;;;;24.80;35.36;101292.09;5033377;28;19931;-88
2022/08/21 08:33:12;;;;;;;;;;;;;;;24.88;35.21;101294.66;5039585;28;20035;-87
2022/08/21 08:35:41;;;;;;;;;;;;;;;24.95;35.24;101291.88;5064713;28;19925;-88
2022/08/21 08:38:09;;;;;;;;;;;;;;;25.00;35.00;101292.94;5045130;28;20197;-89
2022/08/21 08:40:41;;;;;;;;;;;;;;;25.07;34.81;101301.31;5051004;28;19925;-88
2022/08/21 08:43:11;;;;;;;;;;;;;;;25.13;34.91;101301.31;5049819;28;19928;-88
2022/08/21 08:45:45;;;;;;;;;;;;;;;25.21;34.69;101295.47;5048484;28;19925;-89
2022/08/21 08:48:15;;;;;;;;;;;;;;;25.27;34.43;101297.38;5044189;28;19933;-89
2022/08/21 08:50:46;;;;;;;;;;;;;;;25.34;34.33;101290.88;5051505;28;20006;-87
2022/08/21 08:53:16;;;;;;;;;;;;;;;25.41;34.46;101291.69;5047997;28;20390;-88
2022/08/21 08:55:46;;;;;;;;;;;;;;;25.47;34.23;101296.44;5047294;28;19924;-87
2022/08/21 08:58:18;;;;;;;;;;;;;;;25.56;34.38;101295.09;5053535;28;20284;-87
2022/08/21 09:00:49;;;;;;;;;;;;;;;25.61;33.92;101287.78;5048314;28;19959;-87
2022/08/21 09:03:17;;;;;;;;;;;;;;;25.69;33.67;101291.41;5052041;28;19928;-87
2022/08/21 09:05:47;;;;;;;;;;;;;;;25.75;33.79;101285.75;5064033;28;19926;-87
2022/08/21 09:08:28;;;;;;;;;;;;;;;25.80;33.59;101283.13;5055903;28;20278;-86
2022/08/21 09:11:01;;;;;;;;;;;;;;;25.86;33.29;101284.19;5050426;28;19924;-86
2022/08/21 09:13:34;;;;;;;;;;;;;;;25.90;33.27;101283.50;5063486;28;19933;-86
2022/08/21 09:16:12;;;;;;;;;;;;;;;25.93;33.32;101282.19;5039477;28;19960;-86
2022/08/21 09:18:44;;;;;;;;;;;;;;;25.96;32.97;101284.56;5050654;28;20331;-86
2022/08/21 09:21:17;;;;;;;;;;;;;;;25.98;32.97;101287.97;5056884;28;19929;-86
2022/08/21 09:23:51;;;;;;;;;;;;;;;26.01;32.96;101281.91;5041319;28;19924;-86
2022/08/21 09:26:21;;;;;;;;;;;;;;;26.04;32.86;101275.88;5050478;28;20280;-86
2022/08/21 09:28:52;;;;;;;;;;;;;;;26.06;32.74;101272.81;5045784;28;19925;-86
2022/08/21 09:31:24;;;;;;;;;;;;;;;26.08;32.42;101279.94;5049588;28;20020;-86
2022/08/21 09:34:00;;;;;;;;;;;;;;;26.12;32.36;101269.16;5050181;28;20276;-86
2022/08/21 09:36:32;;;;;;;;;;;;;;;26.14;32.54;101267.81;5048496;28;20627;-86
2022/08/21 09:39:01;;;;;;;;;;;;;;;26.18;32.57;101266.28;5066045;28;19924;-86
2022/08/21 09:41:30;;;;;;;;;;;;;;;26.22;32.35;101275.94;5063786;28;19929;-86
2022/08/21 09:43:59;;;;;;;;;;;;;;;26.26;32.27;101276.38;5041148;28;19925;-86
2022/08/21 09:46:28;;;;;;;;;;;;;;;26.30;32.38;101267.25;5057268;28;20286;-87
2022/08/21 09:48:58;;;;;;;;;;;;;;;26.34;31.71;101276.94;5059279;28;21603;-86
2022/08/21 09:51:30;;;;;;;;;;;;;;;26.38;32.02;101268.91;5055220;28;20291;-89
2022/08/21 09:54:14;;;;;;;;;;;;;;;26.41;31.32;101260.03;5045801;28;19932;-87
2022/08/21 09:59:38;;;;;;;;;;;;;;;26.52;31.43;101258.44;5051186;28;19925;-87
2022/08/21 10:02:23;;;;;;;;;;;;;;;26.56;31.26;101254.06;5067600;28;19925;-86
2022/08/21 10:04:52;;;;;;;;;;;;;;;26.61;31.57;101255.16;5032134;28;19931;-87
2022/08/21 10:07:22;;;;;;;;;;;;;;;26.67;31.92;101259.81;5039825;28;19983;-87
2022/08/21 10:09:59;;;;;;;;;;;;;;;26.71;31.61;101252.63;5050196;28;20398;-86
2022/08/21 10:12:32;;;;;;;;;;;;;;;26.77;31.57;101250.88;5068208;28;19925;-88
2022/08/21 10:15:07;;;;;;;;;;;;;;;26.83;31.63;101249.06;5050747;28;19924;-88
2022/08/21 10:17:44;;;;;;;;;;;;;;;26.89;31.41;101254.63;5067713;28;19943;-86
2022/08/21 10:20:17;;;;;;;;;;;;;;;26.96;31.56;101238.53;5059620;28;20291;-86
2022/08/21 10:22:48;;;;;;;;;;;;;;;27.03;31.07;101244.97;5048474;28;19951;-86
2022/08/21 10:25:20;;;;;;;;;;;;;;;27.08;31.01;101245.09;5065082;28;19924;-86
2022/08/21 10:27:53;;;;;;;;;;;;;;;27.16;31.01;101240.28;5049186;28;19940;-86
2022/08/21 10:30:27;;;;;;;;;;;;;;;27.22;31.19;101240.19;5041880;28;19933;-88
2022/08/21 10:33:07;;;;;;;;;;;;;;;27.27;31.07;101229.13;5049012;28;19948;-87
2022/08/21 10:35:41;;;;;;;;;;;;;;;27.35;30.74;101239.19;5064415;28;20269;-87
2022/08/21 10:38:26;;;;;;;;;;;;;;;27.38;30.47;101228.31;5051827;28;20296;-88
2022/08/21 10:41:21;;;;;;;;;;;;;;;27.45;30.57;101231.06;5038503;28;20017;-88
2022/08/21 10:43:53;;;;;;;;;;;;;;;27.48;30.21;101234.22;5045721;28;19925;-87
2022/08/21 10:46:37;;;;;;;;;;;;;;;27.51;30.08;101235.72;5053019;28;19940;-87
2022/08/21 10:49:15;;;;;;;;;;;;;;;27.52;30.02;101231.81;5053385;28;19974;-87
2022/08/21 10:52:00;;;;;;;;;;;;;;;27.53;29.79;101232.69;5055231;28;19947;-87
2022/08/21 10:54:34;;;;;;;;;;;;;;;27.54;29.91;101228.75;5053800;28;19932;-86
2022/08/21 10:57:10;;;;;;;;;;;;;;;27.51;29.70;101230.09;5056182;28;19947;-86
2022/08/21 10:59:43;;;;;;;;;;;;;;;27.51;29.58;101230.09;5068711;28;20409;-85
2022/08/21 11:02:16;;;;;;;;;;;;;;;27.50;29.42;101232.06;5065895;28;19948;-86
2022/08/21 11:04:51;;;;;;;;;;;;;;;27.50;29.43;101232.06;5047154;28;19933;-86
2022/08/21 11:07:22;;;;;;;;;;;;;;;27.50;29.29;101229.25;5050289;28;20430;-86
2022/08/21 11:09:53;;;;;;;;;;;;;;;27.53;29.85;101232.69;5055033;28;19925;-85
2022/08/21 11:12:28;;;;;;;;;;;;;;;27.53;29.47;101230.72;5055546;28;19925;-86
2022/08/21 11:14:59;;;;;;;;;;;;;;;27.55;29.38;101236.94;5056083;28;20007;-86
2022/08/21 11:17:35;;;;;;;;;;;;;;;27.56;29.45;101230.22;5055897;28;19925;-85
2022/08/21 11:20:24;;;;;;;;;;;;;;;27.56;28.75;101230.22;5055183;28;19924;-85
2022/08/21 11:22:57;;;;;;;;;;;;;;;27.57;29.17;101222.66;5058945;28;19971;-85
2022/08/21 11:25:34;;;;;;;;;;;;;;;27.58;28.96;101221.56;5035389;28;19928;-85
2022/08/21 11:28:10;;;;;;;;;;;;;;;27.60;29.00;101228.66;5049358;28;19990;-84
2022/08/21 11:30:48;;;;;;;;;;;;;;;27.62;29.49;101229.25;5046428;28;20018;-85
2022/08/21 11:33:28;;;;;;;;;;;;;;;27.63;28.83;101222.56;5051581;28;19961;-85
2022/08/21 11:36:03;;;;;;;;;;;;;;;27.65;28.63;101226.00;5064812;28;19970;-85
2022/08/21 11:38:38;;;;;;;;;;;;;;;27.66;28.60;101224.03;5051781;28;19932;-85
2022/08/21 11:41:14;;;;;;;;;;;;;;;27.67;28.45;101221.00;5052019;28;20303;-85
2022/08/21 11:43:43;;;;;;;;;;;;;;;27.69;28.53;101217.97;5055590;28;19925;-84
2022/08/21 11:46:20;;;;;;;;;;;;;;;27.69;28.65;101212.34;5041014;28;19999;-85
2022/08/21 11:48:55;;;;;;;;;;;;;;;27.70;28.70;101220.53;5043980;28;19929;-86
2022/08/21 11:51:38;;;;;;;;;;;;;;;27.71;28.54;101225.06;5063952;28;19929;-86
2022/08/21 11:54:15;;;;;;;;;;;;;;;27.71;28.17;101215.75;5040229;28;19932;-87
2022/08/21 11:56:46;;;;;;;;;;;;;;;27.71;28.41;101218.56;5052610;28;20011;-87
2022/08/21 11:59:20;;;;;;;;;;;;;;;27.70;28.34;101217.72;5052170;28;20045;-86
2022/08/21 12:01:50;;;;;;;;;;;;;;;27.69;28.18;101216.03;5052828;28;19928;-87
2022/08/21 12:04:22;;;;;;;;;;;;;;;27.69;28.10;101213.22;5050261;28;19991;-88
2022/08/21 12:06:53;;;;;;;;;;;;;;;27.69;28.23;101207.59;5035478;28;19925;-88
2022/08/21 12:09:34;;;;;;;;;;;;;;;27.69;28.42;101207.59;5050152;28;19959;-87
2022/08/21 12:12:03;;;;;;;;;;;;;;;27.70;28.29;101208.41;5067600;28;19929;-88
2022/08/21 12:14:40;;;;;;;;;;;;;;;27.71;27.77;101212.94;5043453;28;20012;-87
2022/08/21 12:17:18;;;;;;;;;;;;;;;27.71;27.90;101210.13;5069430;28;20402;-86
2022/08/21 12:19:58;;;;;;;;;;;;;;;27.73;27.77;101196.69;5052481;28;19925;-85
2022/08/21 12:22:37;;;;;;;;;;;;;;;27.74;28.15;101199.28;5046411;28;19925;-87
2022/08/21 12:25:08;;;;;;;;;;;;;;;27.77;28.04;101195.13;5047186;28;19931;-87
2022/08/21 12:27:45;;;;;;;;;;;;;;;27.79;27.92;101204.16;5060023;28;19951;-87
2022/08/21 12:30:21;;;;;;;;;;;;;;;27.80;27.91;101198.31;5048275;28;19925;-88
2022/08/21 12:32:59;;;;;;;;;;;;;;;27.85;28.09;101194.78;5038046;28;19929;-87
2022/08/21 12:35:33;;;;;;;;;;;;;;;27.87;28.13;101199.06;5036315;28;19929;-87
2022/08/21 12:38:03;;;;;;;;;;;;;;;27.89;27.72;101196.00;5039640;28;19924;-87
2022/08/21 12:40:38;;;;;;;;;;;;;;;27.91;28.00;101187.34;5049518;28;19924;-87
2022/08/21 12:43:12;;;;;;;;;;;;;;;27.91;27.22;101179.75;5033575;28;19936;-87
2022/08/21 12:45:43;;;;;;;;;;;;;;;27.94;27.50;101192.50;5043827;28;19932;-86
2022/08/21 12:48:15;;;;;;;;;;;;;;;27.95;27.19;101192.22;5049486;28;20429;-86
2022/08/21 12:50:50;;;;;;;;;;;;;;;27.97;27.50;101192.00;5043816;28;20009;-86
2022/08/21 12:53:26;;;;;;;;;;;;;;;27.98;27.23;101193.69;5043118;28;19931;-86
2022/08/21 12:56:01;;;;;;;;;;;;;;;27.98;27.28;101200.19;5050052;28;19975;-86
2022/08/21 12:58:29;;;;;;;;;;;;;;;27.98;27.18;101193.69;5044128;28;20000;-87
2022/08/21 13:00:59;;;;;;;;;;;;;;;27.97;27.21;101183.53;5054081;28;19940;-86
2022/08/21 13:03:28;;;;;;;;;;;;;;;27.95;27.06;101192.22;5033250;28;19933;-87
2022/08/21 13:05:57;;;;;;;;;;;;;;;27.94;26.83;101198.13;5047640;28;19925;-87
2022/08/21 13:08:27;;;;;;;;;;;;;;;27.92;27.08;101186.25;5043254;28;19935;-87
2022/08/21 13:11:00;;;;;;;;;;;;;;;27.90;26.90;101194.06;5050478;28;19965;-88
2022/08/21 13:13:38;;;;;;;;;;;;;;;27.86;27.08;101188.91;5046111;28;20362;-87